sensor_id;sensor_type;location;lat;lon;timestamp;P1;durP1;ratioP1;P2;durP2;ratioP2
56752;SDS011;42627;42.646;23.642;2023-12-22T00:01:25;29.73;;;13.02;;
56752;SDS011;42627;42.646;23.642;2023-12-22T00:03:26;26.70;;;12.27;;
56752;SDS011;42627;42.646;23.642;2023-12-22T00:05:27;29.92;;;13.70;;
56752;SDS011;42627;42.646;23.642;2023-12-22T00:07:33;24.17;;;12.30;;
56752;SDS011;42627;42.646;23.642;2023-12-22T00:09:43;25.83;;;11.43;;
56752;SDS011;42627;42.646;23.642;2023-12-22T00:11:45;28.20;;;10.25;;
56752;SDS011;42627;42.646;23.642;2023-12-22T00:13:46;21.95;;;9.95;;
56752;SDS011;42627;42.646;23.642;2023-12-22T00:15:47;19.60;;;7.72;;
56752;SDS011;42627;42.646;23.642;2023-12-22T00:17:48;18.13;;;8.85;;
56752;SDS011;42627;42.646;23.642;2023-12-22T00:19:49;19.92;;;7.57;;
56752;SDS011;42627;42.646;23.642;2023-12-22T00:21:50;20.48;;;8.40;;
56752;SDS011;42627;42.646;23.642;2023-12-22T00:23:51;17.05;;;7.97;;
56752;SDS011;42627;42.646;23.642;2023-12-22T00:25:52;16.50;;;6.53;;
56752;SDS011;42627;42.646;23.642;2023-12-22T00:27:53;18.67;;;8.48;;
56752;SDS011;42627;42.646;23.642;2023-12-22T00:29:54;19.92;;;8.85;;
56752;SDS011;42627;42.646;23.642;2023-12-22T00:31:55;14.25;;;7.22;;
56752;SDS011;42627;42.646;23.642;2023-12-22T00:33:56;14.25;;;7.15;;
56752;SDS011;42627;42.646;23.642;2023-12-22T00:35:57;15.77;;;7.40;;
56752;SDS011;42627;42.646;23.642;2023-12-22T00:37:58;14.20;;;7.28;;
56752;SDS011;42627;42.646;23.642;2023-12-22T00:40:00;16.42;;;7.82;;
56752;SDS011;42627;42.646;23.642;2023-12-22T00:42:03;16.52;;;8.75;;
56752;SDS011;42627;42.646;23.642;2023-12-22T00:44:04;17.50;;;7.63;;
56752;SDS011;42627;42.646;23.642;2023-12-22T00:46:05;17.30;;;7.70;;
56752;SDS011;42627;42.646;23.642;2023-12-22T00:48:06;20.10;;;9.77;;
56752;SDS011;42627;42.646;23.642;2023-12-22T00:50:07;19.42;;;9.40;;
56752;SDS011;42627;42.646;23.642;2023-12-22T00:52:09;23.77;;;10.70;;
56752;SDS011;42627;42.646;23.642;2023-12-22T00:54:10;22.70;;;10.18;;
56752;SDS011;42627;42.646;23.642;2023-12-22T00:56:11;22.13;;;10.52;;
56752;SDS011;42627;42.646;23.642;2023-12-22T00:58:16;17.95;;;8.55;;
56752;SDS011;42627;42.646;23.642;2023-12-22T01:00:20;19.13;;;9.55;;
56752;SDS011;42627;42.646;23.642;2023-12-22T01:02:21;18.40;;;8.02;;
56752;SDS011;42627;42.646;23.642;2023-12-22T01:04:22;15.70;;;7.30;;
56752;SDS011;42627;42.646;23.642;2023-12-22T01:06:23;17.73;;;8.55;;
56752;SDS011;42627;42.646;23.642;2023-12-22T01:08:24;20.42;;;8.68;;
56752;SDS011;42627;42.646;23.642;2023-12-22T01:10:25;15.25;;;9.00;;
56752;SDS011;42627;42.646;23.642;2023-12-22T01:12:27;19.52;;;8.68;;
56752;SDS011;42627;42.646;23.642;2023-12-22T01:14:28;16.55;;;7.55;;
56752;SDS011;42627;42.646;23.642;2023-12-22T01:16:29;15.52;;;7.43;;
56752;SDS011;42627;42.646;23.642;2023-12-22T01:18:30;19.58;;;8.40;;
56752;SDS011;42627;42.646;23.642;2023-12-22T01:20:31;16.58;;;8.55;;
56752;SDS011;42627;42.646;23.642;2023-12-22T01:22:32;16.35;;;8.50;;
56752;SDS011;42627;42.646;23.642;2023-12-22T01:24:37;14.30;;;7.60;;
56752;SDS011;42627;42.646;23.642;2023-12-22T01:26:41;16.55;;;8.00;;
56752;SDS011;42627;42.646;23.642;2023-12-22T01:28:42;16.65;;;7.78;;
56752;SDS011;42627;42.646;23.642;2023-12-22T01:30:43;20.23;;;9.00;;
56752;SDS011;42627;42.646;23.642;2023-12-22T01:32:44;16.80;;;8.15;;
56752;SDS011;42627;42.646;23.642;2023-12-22T01:34:45;19.92;;;8.32;;
56752;SDS011;42627;42.646;23.642;2023-12-22T01:36:46;17.98;;;8.60;;
56752;SDS011;42627;42.646;23.642;2023-12-22T01:38:47;17.02;;;8.15;;
56752;SDS011;42627;42.646;23.642;2023-12-22T01:40:48;21.45;;;9.40;;
56752;SDS011;42627;42.646;23.642;2023-12-22T01:42:49;20.48;;;9.05;;
56752;SDS011;42627;42.646;23.642;2023-12-22T01:44:52;26.65;;;11.52;;
56752;SDS011;42627;42.646;23.642;2023-12-22T01:46:56;29.13;;;13.82;;
56752;SDS011;42627;42.646;23.642;2023-12-22T01:48:58;37.00;;;16.30;;
56752;SDS011;42627;42.646;23.642;2023-12-22T01:51:01;30.90;;;13.85;;
56752;SDS011;42627;42.646;23.642;2023-12-22T01:53:02;28.08;;;14.13;;
56752;SDS011;42627;42.646;23.642;2023-12-22T01:55:04;28.20;;;14.73;;
56752;SDS011;42627;42.646;23.642;2023-12-22T01:57:05;34.20;;;15.13;;
56752;SDS011;42627;42.646;23.642;2023-12-22T01:59:06;29.95;;;13.75;;
56752;SDS011;42627;42.646;23.642;2023-12-22T02:01:07;32.72;;;14.40;;
56752;SDS011;42627;42.646;23.642;2023-12-22T02:03:09;28.75;;;13.18;;
56752;SDS011;42627;42.646;23.642;2023-12-22T02:05:10;26.35;;;12.23;;
56752;SDS011;42627;42.646;23.642;2023-12-22T02:07:11;23.05;;;11.10;;
56752;SDS011;42627;42.646;23.642;2023-12-22T02:09:13;23.52;;;12.02;;
56752;SDS011;42627;42.646;23.642;2023-12-22T02:11:14;35.35;;;15.70;;
56752;SDS011;42627;42.646;23.642;2023-12-22T02:13:15;32.92;;;14.88;;
56752;SDS011;42627;42.646;23.642;2023-12-22T02:15:16;31.58;;;13.85;;
56752;SDS011;42627;42.646;23.642;2023-12-22T02:17:19;31.20;;;13.70;;
56752;SDS011;42627;42.646;23.642;2023-12-22T02:21:23;23.80;;;12.77;;
56752;SDS011;42627;42.646;23.642;2023-12-22T02:23:24;29.75;;;13.43;;
56752;SDS011;42627;42.646;23.642;2023-12-22T02:25:31;33.83;;;14.25;;
56752;SDS011;42627;42.646;23.642;2023-12-22T02:27:44;22.95;;;11.90;;
56752;SDS011;42627;42.646;23.642;2023-12-22T02:30:08;25.75;;;12.57;;
56752;SDS011;42627;42.646;23.642;2023-12-22T02:32:08;29.50;;;15.77;;
56752;SDS011;42627;42.646;23.642;2023-12-22T02:34:12;34.40;;;16.25;;
56752;SDS011;42627;42.646;23.642;2023-12-22T02:36:14;24.92;;;11.85;;
56752;SDS011;42627;42.646;23.642;2023-12-22T02:38:16;26.80;;;11.50;;
56752;SDS011;42627;42.646;23.642;2023-12-22T02:40:17;21.30;;;9.65;;
56752;SDS011;42627;42.646;23.642;2023-12-22T02:42:18;19.33;;;8.43;;
56752;SDS011;42627;42.646;23.642;2023-12-22T02:44:23;23.17;;;7.95;;
56752;SDS011;42627;42.646;23.642;2023-12-22T02:46:24;15.73;;;8.23;;
56752;SDS011;42627;42.646;23.642;2023-12-22T02:48:25;21.13;;;10.55;;
56752;SDS011;42627;42.646;23.642;2023-12-22T02:50:26;19.33;;;9.60;;
56752;SDS011;42627;42.646;23.642;2023-12-22T02:52:27;19.55;;;9.68;;
56752;SDS011;42627;42.646;23.642;2023-12-22T02:54:28;28.25;;;11.70;;
56752;SDS011;42627;42.646;23.642;2023-12-22T02:56:31;23.65;;;11.45;;
56752;SDS011;42627;42.646;23.642;2023-12-22T02:58:32;26.20;;;11.55;;
56752;SDS011;42627;42.646;23.642;2023-12-22T03:00:33;20.75;;;10.63;;
56752;SDS011;42627;42.646;23.642;2023-12-22T03:02:34;21.92;;;10.77;;
56752;SDS011;42627;42.646;23.642;2023-12-22T03:04:35;15.73;;;7.38;;
56752;SDS011;42627;42.646;23.642;2023-12-22T03:06:39;14.45;;;6.85;;
56752;SDS011;42627;42.646;23.642;2023-12-22T03:08:40;22.67;;;9.15;;
56752;SDS011;42627;42.646;23.642;2023-12-22T03:10:41;20.65;;;8.70;;
56752;SDS011;42627;42.646;23.642;2023-12-22T03:12:43;19.55;;;9.57;;
56752;SDS011;42627;42.646;23.642;2023-12-22T03:14:44;17.85;;;9.05;;
56752;SDS011;42627;42.646;23.642;2023-12-22T03:16:45;18.55;;;10.02;;
56752;SDS011;42627;42.646;23.642;2023-12-22T03:18:46;17.00;;;9.35;;
56752;SDS011;42627;42.646;23.642;2023-12-22T03:20:47;24.50;;;9.93;;
56752;SDS011;42627;42.646;23.642;2023-12-22T03:22:48;19.48;;;9.65;;
56752;SDS011;42627;42.646;23.642;2023-12-22T03:24:49;18.23;;;8.82;;
56752;SDS011;42627;42.646;23.642;2023-12-22T03:26:50;22.00;;;9.35;;
56752;SDS011;42627;42.646;23.642;2023-12-22T03:28:51;18.15;;;9.38;;
56752;SDS011;42627;42.646;23.642;2023-12-22T03:30:52;22.50;;;9.98;;
56752;SDS011;42627;42.646;23.642;2023-12-22T03:32:53;21.65;;;9.77;;
56752;SDS011;42627;42.646;23.642;2023-12-22T03:34:54;17.52;;;9.27;;
56752;SDS011;42627;42.646;23.642;2023-12-22T03:36:55;16.45;;;9.13;;
56752;SDS011;42627;42.646;23.642;2023-12-22T03:38:57;18.70;;;9.20;;
56752;SDS011;42627;42.646;23.642;2023-12-22T03:40:58;18.85;;;9.00;;
56752;SDS011;42627;42.646;23.642;2023-12-22T03:42:59;24.30;;;10.90;;
56752;SDS011;42627;42.646;23.642;2023-12-22T03:45:00;19.17;;;9.90;;
56752;SDS011;42627;42.646;23.642;2023-12-22T03:47:01;26.95;;;12.30;;
56752;SDS011;42627;42.646;23.642;2023-12-22T03:49:02;30.67;;;13.07;;
56752;SDS011;42627;42.646;23.642;2023-12-22T03:51:03;27.73;;;13.23;;
56752;SDS011;42627;42.646;23.642;2023-12-22T03:53:04;31.63;;;13.75;;
56752;SDS011;42627;42.646;23.642;2023-12-22T03:55:05;35.20;;;14.75;;
56752;SDS011;42627;42.646;23.642;2023-12-22T03:57:07;38.53;;;16.05;;
56752;SDS011;42627;42.646;23.642;2023-12-22T03:59:08;30.77;;;14.55;;
56752;SDS011;42627;42.646;23.642;2023-12-22T04:01:09;34.03;;;15.63;;
56752;SDS011;42627;42.646;23.642;2023-12-22T04:03:10;34.35;;;14.95;;
56752;SDS011;42627;42.646;23.642;2023-12-22T04:05:11;32.88;;;14.15;;
56752;SDS011;42627;42.646;23.642;2023-12-22T04:07:12;38.80;;;15.27;;
56752;SDS011;42627;42.646;23.642;2023-12-22T04:09:13;24.48;;;12.02;;
56752;SDS011;42627;42.646;23.642;2023-12-22T04:11:14;33.72;;;14.48;;
56752;SDS011;42627;42.646;23.642;2023-12-22T04:13:15;38.22;;;15.25;;
56752;SDS011;42627;42.646;23.642;2023-12-22T04:15:16;38.70;;;15.02;;
56752;SDS011;42627;42.646;23.642;2023-12-22T04:17:18;37.85;;;15.85;;
56752;SDS011;42627;42.646;23.642;2023-12-22T04:19:19;24.63;;;11.52;;
56752;SDS011;42627;42.646;23.642;2023-12-22T04:21:20;25.42;;;11.05;;
56752;SDS011;42627;42.646;23.642;2023-12-22T04:23:21;24.95;;;11.82;;
56752;SDS011;42627;42.646;23.642;2023-12-22T04:25:22;23.75;;;11.10;;
56752;SDS011;42627;42.646;23.642;2023-12-22T04:27:24;23.20;;;9.90;;
56752;SDS011;42627;42.646;23.642;2023-12-22T04:29:25;19.17;;;8.80;;
56752;SDS011;42627;42.646;23.642;2023-12-22T04:31:26;21.58;;;10.15;;
56752;SDS011;42627;42.646;23.642;2023-12-22T04:33:27;19.00;;;8.25;;
56752;SDS011;42627;42.646;23.642;2023-12-22T04:35:28;19.83;;;9.65;;
56752;SDS011;42627;42.646;23.642;2023-12-22T04:37:30;18.75;;;9.02;;
56752;SDS011;42627;42.646;23.642;2023-12-22T04:39:31;19.48;;;7.22;;
56752;SDS011;42627;42.646;23.642;2023-12-22T04:41:32;16.65;;;7.65;;
56752;SDS011;42627;42.646;23.642;2023-12-22T04:43:33;18.58;;;8.07;;
56752;SDS011;42627;42.646;23.642;2023-12-22T04:45:34;18.73;;;7.78;;
56752;SDS011;42627;42.646;23.642;2023-12-22T04:47:35;15.95;;;7.47;;
56752;SDS011;42627;42.646;23.642;2023-12-22T04:49:36;19.50;;;8.48;;
56752;SDS011;42627;42.646;23.642;2023-12-22T04:51:37;17.48;;;7.43;;
56752;SDS011;42627;42.646;23.642;2023-12-22T04:53:38;15.82;;;7.88;;
56752;SDS011;42627;42.646;23.642;2023-12-22T04:55:39;16.60;;;8.27;;
56752;SDS011;42627;42.646;23.642;2023-12-22T04:57:40;17.80;;;8.10;;
56752;SDS011;42627;42.646;23.642;2023-12-22T04:59:41;21.10;;;10.68;;
56752;SDS011;42627;42.646;23.642;2023-12-22T05:01:42;17.33;;;9.60;;
56752;SDS011;42627;42.646;23.642;2023-12-22T05:03:45;31.40;;;11.93;;
56752;SDS011;42627;42.646;23.642;2023-12-22T05:05:46;70.85;;;21.40;;
56752;SDS011;42627;42.646;23.642;2023-12-22T05:07:47;33.33;;;14.27;;
56752;SDS011;42627;42.646;23.642;2023-12-22T05:09:49;26.67;;;12.40;;
56752;SDS011;42627;42.646;23.642;2023-12-22T05:11:52;26.25;;;12.63;;
56752;SDS011;42627;42.646;23.642;2023-12-22T05:13:53;18.77;;;9.70;;
56752;SDS011;42627;42.646;23.642;2023-12-22T05:15:54;19.10;;;9.90;;
56752;SDS011;42627;42.646;23.642;2023-12-22T05:17:55;21.67;;;10.70;;
56752;SDS011;42627;42.646;23.642;2023-12-22T05:19:56;19.70;;;9.70;;
56752;SDS011;42627;42.646;23.642;2023-12-22T05:21:57;17.52;;;9.32;;
56752;SDS011;42627;42.646;23.642;2023-12-22T05:23:58;18.30;;;8.73;;
56752;SDS011;42627;42.646;23.642;2023-12-22T05:25:59;29.10;;;11.85;;
56752;SDS011;42627;42.646;23.642;2023-12-22T05:28:00;21.25;;;10.80;;
56752;SDS011;42627;42.646;23.642;2023-12-22T05:30:01;20.67;;;8.98;;
56752;SDS011;42627;42.646;23.642;2023-12-22T05:32:04;21.38;;;10.40;;
56752;SDS011;42627;42.646;23.642;2023-12-22T05:34:05;23.15;;;9.48;;
56752;SDS011;42627;42.646;23.642;2023-12-22T05:36:06;16.95;;;7.75;;
56752;SDS011;42627;42.646;23.642;2023-12-22T05:38:07;16.35;;;8.00;;
56752;SDS011;42627;42.646;23.642;2023-12-22T05:40:08;16.45;;;7.35;;
56752;SDS011;42627;42.646;23.642;2023-12-22T05:42:11;15.65;;;7.32;;
56752;SDS011;42627;42.646;23.642;2023-12-22T05:44:12;18.33;;;7.32;;
56752;SDS011;42627;42.646;23.642;2023-12-22T05:46:13;15.18;;;7.22;;
56752;SDS011;42627;42.646;23.642;2023-12-22T05:48:15;14.45;;;6.97;;
56752;SDS011;42627;42.646;23.642;2023-12-22T05:50:16;10.80;;;5.80;;
56752;SDS011;42627;42.646;23.642;2023-12-22T05:52:17;18.95;;;7.35;;
56752;SDS011;42627;42.646;23.642;2023-12-22T05:54:18;13.88;;;7.00;;
56752;SDS011;42627;42.646;23.642;2023-12-22T05:56:20;15.15;;;7.25;;
56752;SDS011;42627;42.646;23.642;2023-12-22T05:58:21;17.05;;;8.60;;
56752;SDS011;42627;42.646;23.642;2023-12-22T06:00:22;17.95;;;8.38;;
56752;SDS011;42627;42.646;23.642;2023-12-22T06:02:24;21.02;;;11.10;;
56752;SDS011;42627;42.646;23.642;2023-12-22T06:04:26;22.80;;;11.10;;
56752;SDS011;42627;42.646;23.642;2023-12-22T06:06:27;28.52;;;12.63;;
56752;SDS011;42627;42.646;23.642;2023-12-22T06:08:28;33.13;;;15.10;;
56752;SDS011;42627;42.646;23.642;2023-12-22T06:10:29;41.30;;;19.25;;
56752;SDS011;42627;42.646;23.642;2023-12-22T06:12:30;39.92;;;18.88;;
56752;SDS011;42627;42.646;23.642;2023-12-22T06:14:32;48.67;;;22.50;;
56752;SDS011;42627;42.646;23.642;2023-12-22T06:16:35;61.83;;;27.15;;
56752;SDS011;42627;42.646;23.642;2023-12-22T06:18:36;47.80;;;22.55;;
56752;SDS011;42627;42.646;23.642;2023-12-22T06:20:37;35.33;;;17.02;;
56752;SDS011;42627;42.646;23.642;2023-12-22T06:22:38;24.85;;;12.13;;
56752;SDS011;42627;42.646;23.642;2023-12-22T06:24:39;20.98;;;9.55;;
56752;SDS011;42627;42.646;23.642;2023-12-22T06:26:40;17.58;;;9.13;;
56752;SDS011;42627;42.646;23.642;2023-12-22T06:28:41;24.17;;;10.35;;
56752;SDS011;42627;42.646;23.642;2023-12-22T06:30:43;18.95;;;10.02;;
56752;SDS011;42627;42.646;23.642;2023-12-22T06:32:44;18.13;;;9.23;;
56752;SDS011;42627;42.646;23.642;2023-12-22T06:34:45;24.90;;;11.30;;
56752;SDS011;42627;42.646;23.642;2023-12-22T06:36:46;25.85;;;12.02;;
56752;SDS011;42627;42.646;23.642;2023-12-22T06:38:47;29.48;;;13.55;;
56752;SDS011;42627;42.646;23.642;2023-12-22T06:40:49;23.00;;;10.93;;
56752;SDS011;42627;42.646;23.642;2023-12-22T06:42:50;17.00;;;8.23;;
56752;SDS011;42627;42.646;23.642;2023-12-22T06:44:51;17.83;;;8.88;;
56752;SDS011;42627;42.646;23.642;2023-12-22T06:46:52;24.13;;;9.68;;
56752;SDS011;42627;42.646;23.642;2023-12-22T06:48:54;40.45;;;16.25;;
56752;SDS011;42627;42.646;23.642;2023-12-22T06:50:55;31.13;;;12.48;;
56752;SDS011;42627;42.646;23.642;2023-12-22T06:52:56;21.05;;;9.75;;
56752;SDS011;42627;42.646;23.642;2023-12-22T06:54:57;21.70;;;10.63;;
56752;SDS011;42627;42.646;23.642;2023-12-22T06:56:58;24.33;;;12.75;;
56752;SDS011;42627;42.646;23.642;2023-12-22T06:59:00;35.42;;;14.93;;
56752;SDS011;42627;42.646;23.642;2023-12-22T07:01:02;33.65;;;15.18;;
56752;SDS011;42627;42.646;23.642;2023-12-22T07:03:03;27.98;;;14.50;;
56752;SDS011;42627;42.646;23.642;2023-12-22T07:07:26;25.60;;;12.15;;
56752;SDS011;42627;42.646;23.642;2023-12-22T07:09:28;23.88;;;13.68;;
56752;SDS011;42627;42.646;23.642;2023-12-22T07:11:29;31.85;;;15.38;;
56752;SDS011;42627;42.646;23.642;2023-12-22T07:13:30;34.42;;;16.20;;
56752;SDS011;42627;42.646;23.642;2023-12-22T07:15:31;36.08;;;16.40;;
56752;SDS011;42627;42.646;23.642;2023-12-22T07:17:53;38.28;;;18.88;;
56752;SDS011;42627;42.646;23.642;2023-12-22T07:22:46;46.80;;;21.65;;
56752;SDS011;42627;42.646;23.642;2023-12-22T07:25:00;49.17;;;22.23;;
56752;SDS011;42627;42.646;23.642;2023-12-22T07:27:12;46.90;;;19.52;;
56752;SDS011;42627;42.646;23.642;2023-12-22T07:31:46;49.05;;;19.05;;
56752;SDS011;42627;42.646;23.642;2023-12-22T07:33:55;49.20;;;19.60;;
56752;SDS011;42627;42.646;23.642;2023-12-22T07:36:05;43.83;;;17.63;;
56752;SDS011;42627;42.646;23.642;2023-12-22T07:38:09;35.97;;;15.90;;
56752;SDS011;42627;42.646;23.642;2023-12-22T07:40:30;31.13;;;12.43;;
56752;SDS011;42627;42.646;23.642;2023-12-22T07:42:31;29.80;;;13.00;;
56752;SDS011;42627;42.646;23.642;2023-12-22T07:44:32;31.60;;;13.20;;
56752;SDS011;42627;42.646;23.642;2023-12-22T07:46:33;31.58;;;13.68;;
56752;SDS011;42627;42.646;23.642;2023-12-22T07:48:34;31.05;;;15.75;;
56752;SDS011;42627;42.646;23.642;2023-12-22T07:50:35;29.25;;;14.50;;
56752;SDS011;42627;42.646;23.642;2023-12-22T07:52:36;33.78;;;15.85;;
56752;SDS011;42627;42.646;23.642;2023-12-22T07:54:38;28.25;;;15.95;;
56752;SDS011;42627;42.646;23.642;2023-12-22T07:56:39;34.88;;;17.48;;
56752;SDS011;42627;42.646;23.642;2023-12-22T07:58:41;29.88;;;15.00;;
56752;SDS011;42627;42.646;23.642;2023-12-22T08:00:42;32.03;;;14.65;;
56752;SDS011;42627;42.646;23.642;2023-12-22T08:02:43;25.67;;;11.90;;
56752;SDS011;42627;42.646;23.642;2023-12-22T08:04:44;31.33;;;12.57;;
56752;SDS011;42627;42.646;23.642;2023-12-22T08:06:45;25.92;;;12.95;;
56752;SDS011;42627;42.646;23.642;2023-12-22T08:08:46;27.55;;;13.25;;
56752;SDS011;42627;42.646;23.642;2023-12-22T08:10:47;27.17;;;14.07;;
56752;SDS011;42627;42.646;23.642;2023-12-22T08:12:48;31.98;;;14.25;;
56752;SDS011;42627;42.646;23.642;2023-12-22T08:14:49;30.45;;;12.85;;
56752;SDS011;42627;42.646;23.642;2023-12-22T08:16:51;23.52;;;12.05;;
56752;SDS011;42627;42.646;23.642;2023-12-22T08:18:52;24.88;;;12.50;;
56752;SDS011;42627;42.646;23.642;2023-12-22T08:20:53;25.58;;;12.05;;
56752;SDS011;42627;42.646;23.642;2023-12-22T08:22:54;27.52;;;12.10;;
56752;SDS011;42627;42.646;23.642;2023-12-22T08:24:55;29.02;;;11.60;;
56752;SDS011;42627;42.646;23.642;2023-12-22T08:26:56;26.63;;;10.95;;
56752;SDS011;42627;42.646;23.642;2023-12-22T08:28:57;20.85;;;10.73;;
56752;SDS011;42627;42.646;23.642;2023-12-22T08:30:58;20.02;;;10.25;;
56752;SDS011;42627;42.646;23.642;2023-12-22T08:33:00;28.05;;;12.88;;
56752;SDS011;42627;42.646;23.642;2023-12-22T08:35:01;30.58;;;12.80;;
56752;SDS011;42627;42.646;23.642;2023-12-22T08:37:04;23.02;;;9.88;;
56752;SDS011;42627;42.646;23.642;2023-12-22T08:39:05;19.13;;;9.50;;
56752;SDS011;42627;42.646;23.642;2023-12-22T08:41:07;35.33;;;14.18;;
56752;SDS011;42627;42.646;23.642;2023-12-22T08:43:08;26.88;;;13.80;;
56752;SDS011;42627;42.646;23.642;2023-12-22T08:45:09;28.10;;;12.30;;
56752;SDS011;42627;42.646;23.642;2023-12-22T08:47:10;34.42;;;14.45;;
56752;SDS011;42627;42.646;23.642;2023-12-22T08:49:11;30.00;;;14.00;;
56752;SDS011;42627;42.646;23.642;2023-12-22T08:51:12;33.22;;;14.18;;
56752;SDS011;42627;42.646;23.642;2023-12-22T08:53:13;35.22;;;17.92;;
56752;SDS011;42627;42.646;23.642;2023-12-22T08:55:14;38.50;;;16.80;;
56752;SDS011;42627;42.646;23.642;2023-12-22T08:57:16;47.20;;;17.58;;
56752;SDS011;42627;42.646;23.642;2023-12-22T08:59:17;33.58;;;16.50;;
56752;SDS011;42627;42.646;23.642;2023-12-22T09:01:18;36.10;;;17.70;;
56752;SDS011;42627;42.646;23.642;2023-12-22T09:03:19;39.63;;;18.48;;
56752;SDS011;42627;42.646;23.642;2023-12-22T09:05:20;48.95;;;20.75;;
56752;SDS011;42627;42.646;23.642;2023-12-22T09:07:22;51.78;;;21.08;;
56752;SDS011;42627;42.646;23.642;2023-12-22T09:09:24;61.65;;;25.13;;
56752;SDS011;42627;42.646;23.642;2023-12-22T09:11:26;55.90;;;25.10;;
56752;SDS011;42627;42.646;23.642;2023-12-22T09:13:27;47.95;;;24.35;;
56752;SDS011;42627;42.646;23.642;2023-12-22T09:15:29;47.53;;;23.98;;
56752;SDS011;42627;42.646;23.642;2023-12-22T09:17:30;49.38;;;21.75;;
56752;SDS011;42627;42.646;23.642;2023-12-22T09:19:33;44.15;;;20.42;;
56752;SDS011;42627;42.646;23.642;2023-12-22T09:21:34;38.05;;;17.33;;
56752;SDS011;42627;42.646;23.642;2023-12-22T09:23:35;40.08;;;20.17;;
56752;SDS011;42627;42.646;23.642;2023-12-22T09:25:36;51.28;;;21.48;;
56752;SDS011;42627;42.646;23.642;2023-12-22T09:27:37;49.65;;;24.15;;
56752;SDS011;42627;42.646;23.642;2023-12-22T09:29:38;53.95;;;24.20;;
56752;SDS011;42627;42.646;23.642;2023-12-22T09:31:39;51.50;;;23.05;;
56752;SDS011;42627;42.646;23.642;2023-12-22T09:33:41;49.42;;;21.67;;
56752;SDS011;42627;42.646;23.642;2023-12-22T09:35:42;35.40;;;18.20;;
56752;SDS011;42627;42.646;23.642;2023-12-22T09:37:43;38.67;;;18.13;;
56752;SDS011;42627;42.646;23.642;2023-12-22T09:42:25;29.00;;;14.98;;
56752;SDS011;42627;42.646;23.642;2023-12-22T09:44:49;25.13;;;14.45;;
56752;SDS011;42627;42.646;23.642;2023-12-22T09:49:38;24.75;;;12.10;;
56752;SDS011;42627;42.646;23.642;2023-12-22T09:57:14;25.20;;;12.68;;
56752;SDS011;42627;42.646;23.642;2023-12-22T09:59:32;27.67;;;12.55;;
56752;SDS011;42627;42.646;23.642;2023-12-22T10:01:44;23.60;;;11.25;;
56752;SDS011;42627;42.646;23.642;2023-12-22T10:03:48;26.52;;;11.48;;
56752;SDS011;42627;42.646;23.642;2023-12-22T10:05:51;30.23;;;13.25;;
56752;SDS011;42627;42.646;23.642;2023-12-22T10:07:53;25.08;;;13.05;;
56752;SDS011;42627;42.646;23.642;2023-12-22T10:10:12;29.23;;;13.57;;
56752;SDS011;42627;42.646;23.642;2023-12-22T10:15:10;22.58;;;12.23;;
56752;SDS011;42627;42.646;23.642;2023-12-22T10:20:17;22.20;;;11.40;;
56752;SDS011;42627;42.646;23.642;2023-12-22T10:28:12;21.45;;;11.02;;
56752;SDS011;42627;42.646;23.642;2023-12-22T10:35:32;34.05;;;13.38;;
56752;SDS011;42627;42.646;23.642;2023-12-22T10:37:33;52.42;;;23.05;;
56752;SDS011;42627;42.646;23.642;2023-12-22T10:39:35;34.45;;;14.02;;
56752;SDS011;42627;42.646;23.642;2023-12-22T10:41:40;30.73;;;14.20;;
56752;SDS011;42627;42.646;23.642;2023-12-22T10:43:41;37.55;;;16.15;;
56752;SDS011;42627;42.646;23.642;2023-12-22T10:45:42;22.13;;;11.68;;
56752;SDS011;42627;42.646;23.642;2023-12-22T10:47:43;27.13;;;12.57;;
56752;SDS011;42627;42.646;23.642;2023-12-22T10:49:45;28.38;;;12.65;;
56752;SDS011;42627;42.646;23.642;2023-12-22T10:51:46;22.67;;;10.85;;
56752;SDS011;42627;42.646;23.642;2023-12-22T10:53:48;21.98;;;10.13;;
56752;SDS011;42627;42.646;23.642;2023-12-22T10:55:49;23.95;;;11.90;;
56752;SDS011;42627;42.646;23.642;2023-12-22T10:57:50;21.73;;;10.45;;
56752;SDS011;42627;42.646;23.642;2023-12-22T11:00:13;23.38;;;10.50;;
56752;SDS011;42627;42.646;23.642;2023-12-22T11:02:27;19.80;;;8.68;;
56752;SDS011;42627;42.646;23.642;2023-12-22T11:06:49;16.67;;;8.82;;
56752;SDS011;42627;42.646;23.642;2023-12-22T11:09:08;20.70;;;9.57;;
56752;SDS011;42627;42.646;23.642;2023-12-22T11:13:50;22.75;;;9.48;;
56752;SDS011;42627;42.646;23.642;2023-12-22T11:18:43;19.58;;;9.85;;
56752;SDS011;42627;42.646;23.642;2023-12-22T11:21:07;18.10;;;9.68;;
56752;SDS011;42627;42.646;23.642;2023-12-22T11:23:27;21.23;;;9.77;;
56752;SDS011;42627;42.646;23.642;2023-12-22T11:28:19;24.65;;;10.65;;
56752;SDS011;42627;42.646;23.642;2023-12-22T11:33:09;20.77;;;9.00;;
56752;SDS011;42627;42.646;23.642;2023-12-22T11:37:58;16.17;;;8.18;;
56752;SDS011;42627;42.646;23.642;2023-12-22T11:48:14;18.95;;;8.18;;
56752;SDS011;42627;42.646;23.642;2023-12-22T11:50:28;20.90;;;11.38;;
56752;SDS011;42627;42.646;23.642;2023-12-22T11:52:30;25.25;;;13.18;;
56752;SDS011;42627;42.646;23.642;2023-12-22T11:54:50;29.00;;;13.02;;
56752;SDS011;42627;42.646;23.642;2023-12-22T11:56:52;16.42;;;8.77;;
56752;SDS011;42627;42.646;23.642;2023-12-22T11:58:55;19.35;;;10.05;;
56752;SDS011;42627;42.646;23.642;2023-12-22T12:01:36;13.70;;;8.65;;
56752;SDS011;42627;42.646;23.642;2023-12-22T12:03:47;16.15;;;7.65;;
56752;SDS011;42627;42.646;23.642;2023-12-22T12:08:44;19.52;;;9.32;;
56752;SDS011;42627;42.646;23.642;2023-12-22T12:14:13;14.38;;;8.20;;
56752;SDS011;42627;42.646;23.642;2023-12-22T12:16:34;23.65;;;11.02;;
56752;SDS011;42627;42.646;23.642;2023-12-22T12:19:12;22.20;;;10.15;;
56752;SDS011;42627;42.646;23.642;2023-12-22T12:24:16;15.50;;;7.00;;
56752;SDS011;42627;42.646;23.642;2023-12-22T12:26:52;17.95;;;9.10;;
56752;SDS011;42627;42.646;23.642;2023-12-22T12:29:15;21.67;;;11.27;;
56752;SDS011;42627;42.646;23.642;2023-12-22T12:31:36;15.20;;;7.50;;
56752;SDS011;42627;42.646;23.642;2023-12-22T12:33:49;19.73;;;9.55;;
56752;SDS011;42627;42.646;23.642;2023-12-22T12:36:10;19.48;;;8.98;;
56752;SDS011;42627;42.646;23.642;2023-12-22T12:41:38;13.95;;;7.40;;
56752;SDS011;42627;42.646;23.642;2023-12-22T12:44:03;17.35;;;7.97;;
56752;SDS011;42627;42.646;23.642;2023-12-22T12:49:04;23.30;;;10.23;;
56752;SDS011;42627;42.646;23.642;2023-12-22T12:51:22;23.67;;;10.40;;
56752;SDS011;42627;42.646;23.642;2023-12-22T12:53:43;18.73;;;8.60;;
56752;SDS011;42627;42.646;23.642;2023-12-22T12:55:57;13.98;;;8.48;;
56752;SDS011;42627;42.646;23.642;2023-12-22T13:03:15;21.80;;;8.68;;
56752;SDS011;42627;42.646;23.642;2023-12-22T13:05:34;20.20;;;9.20;;
56752;SDS011;42627;42.646;23.642;2023-12-22T13:07:48;18.80;;;9.07;;
56752;SDS011;42627;42.646;23.642;2023-12-22T13:12:54;30.92;;;11.52;;
56752;SDS011;42627;42.646;23.642;2023-12-22T13:15:36;25.70;;;12.43;;
56752;SDS011;42627;42.646;23.642;2023-12-22T13:23:02;36.08;;;14.05;;
56752;SDS011;42627;42.646;23.642;2023-12-22T13:25:16;34.20;;;14.30;;
56752;SDS011;42627;42.646;23.642;2023-12-22T13:32:54;46.25;;;18.98;;